createdAt,value
2023-04-01T00:01:36.193Z,10.48
2023-04-01T00:04:04.538Z,10.62
2023-04-01T00:06:32.881Z,10.49
2023-04-01T00:09:00.935Z,10.31
2023-04-01T00:11:30.539Z,10.39
2023-04-01T00:13:59.931Z,10.35
2023-04-01T00:16:28.205Z,10.24
2023-04-01T00:18:56.221Z,10.40
2023-04-01T00:21:24.618Z,10.29
2023-04-01T00:23:53.208Z,10.20
2023-04-01T00:26:22.856Z,10.40
2023-04-01T00:28:51.956Z,10.43
2023-04-01T00:31:21.882Z,10.40
2023-04-01T00:33:50.448Z,10.29
2023-04-01T00:36:20.362Z,10.43
2023-04-01T00:38:48.416Z,10.32
2023-04-01T00:41:17.903Z,10.41
2023-04-01T00:43:47.845Z,10.49
2023-04-01T00:46:16.392Z,10.53
2023-04-01T00:48:47.592Z,10.42
2023-04-01T00:51:18.273Z,10.52
2023-04-01T00:53:48.955Z,10.39
2023-04-01T00:56:19.659Z,10.23
2023-04-01T00:58:50.906Z,10.21
2023-04-01T01:01:19.655Z,10.32
2023-04-01T01:03:49.120Z,10.34
2023-04-01T01:06:28.635Z,10.32
2023-04-01T01:09:16.537Z,10.22
2023-04-01T01:11:50.263Z,10.37
2023-04-01T01:14:29.525Z,10.28
2023-04-01T01:17:03.330Z,10.24
2023-04-01T01:19:51.105Z,10.20
2023-04-01T01:22:36.250Z,10.21
2023-04-01T01:25:16.960Z,10.20
2023-04-01T01:27:51.499Z,10.22
2023-04-01T01:30:34.082Z,10.40
2023-04-01T01:33:27.804Z,10.43
2023-04-01T01:36:00.046Z,10.37
2023-04-01T01:38:29.889Z,10.26
2023-04-01T01:41:03.859Z,10.35
2023-04-01T01:43:34.265Z,10.25
2023-04-01T01:46:05.575Z,10.31
2023-04-01T01:48:36.583Z,10.41
2023-04-01T01:51:07.371Z,10.27
2023-04-01T01:53:35.641Z,10.30
2023-04-01T01:56:04.991Z,10.35
2023-04-01T01:58:42.226Z,10.27
2023-04-01T02:01:15.508Z,10.25
2023-04-01T02:03:44.783Z,10.40
2023-04-01T02:06:17.670Z,10.56
2023-04-01T02:08:47.905Z,10.54
2023-04-01T02:11:19.977Z,10.40
2023-04-01T02:13:54.468Z,10.59
2023-04-01T02:16:25.587Z,10.59
2023-04-01T02:18:57.673Z,10.55
2023-04-01T02:21:30.527Z,10.59
2023-04-01T02:24:01.034Z,10.74
2023-04-01T02:26:29.257Z,10.75
2023-04-01T02:28:58.503Z,10.85
2023-04-01T02:31:28.828Z,10.49
2023-04-01T02:33:57.189Z,10.51
2023-04-01T02:36:26.933Z,10.65
2023-04-01T02:38:56.586Z,10.64
2023-04-01T02:41:24.580Z,10.66
2023-04-01T02:43:52.873Z,10.63
2023-04-01T02:46:21.013Z,10.61
2023-04-01T02:48:49.218Z,10.72
2023-04-01T02:51:18.382Z,10.59
2023-04-01T02:53:48.280Z,10.59
2023-04-01T02:56:16.334Z,10.53
2023-04-01T02:58:44.578Z,10.49
2023-04-01T03:01:12.718Z,10.51
2023-04-01T03:03:41.093Z,10.47
2023-04-01T03:06:10.436Z,10.46
2023-04-01T03:08:38.706Z,10.38
2023-04-01T03:11:08.656Z,10.41
2023-04-01T03:13:38.402Z,10.56
2023-04-01T03:16:07.097Z,10.55
2023-04-01T03:18:37.112Z,10.68
2023-04-01T03:21:16.260Z,10.62
2023-04-01T03:23:44.676Z,10.51
2023-04-01T03:26:14.474Z,10.47
2023-04-01T03:28:43.302Z,10.59
2023-04-01T03:31:11.839Z,10.61
2023-04-01T03:33:46.571Z,10.69
2023-04-01T03:36:15.215Z,10.59
2023-04-01T03:38:44.397Z,10.52
2023-04-01T03:41:16.394Z,10.44
2023-04-01T03:43:45.889Z,10.46
2023-04-01T03:46:19.279Z,10.42
2023-04-01T03:48:48.598Z,10.51
2023-04-01T03:51:16.637Z,10.51
2023-04-01T03:53:45.662Z,10.47
2023-04-01T03:56:15.130Z,10.61
2023-04-01T03:58:43.399Z,10.59
2023-04-01T04:01:16.643Z,10.61
2023-04-01T04:03:46.669Z,10.67
2023-04-01T04:06:15.746Z,10.73
2023-04-01T04:08:45.154Z,10.68
2023-04-01T04:11:14.897Z,10.71
2023-04-01T04:13:45.478Z,10.58
2023-04-01T04:16:13.709Z,10.52
2023-04-01T04:18:46.927Z,10.46
2023-04-01T04:21:15.783Z,10.44
2023-04-01T04:23:45.030Z,10.48
2023-04-01T04:26:17.519Z,10.53
2023-04-01T04:28:51.488Z,10.56
2023-04-01T04:31:21.556Z,10.53
2023-04-01T04:33:52.300Z,10.56
2023-04-01T04:36:20.886Z,10.45
2023-04-01T04:38:51.259Z,10.44
2023-04-01T04:41:22.588Z,10.46
2023-04-01T04:43:53.350Z,10.31
2023-04-01T04:46:21.868Z,10.34
2023-04-01T04:48:54.022Z,10.33
2023-04-01T04:51:23.036Z,10.30
2023-04-01T04:53:52.998Z,10.05
2023-04-01T04:56:26.258Z,9.99
2023-04-01T04:59:08.931Z,9.93
2023-04-01T05:01:49.864Z,9.97
2023-04-01T05:04:18.268Z,9.90
2023-04-01T05:06:46.595Z,9.96
2023-04-01T05:09:15.846Z,9.80
2023-04-01T05:11:45.738Z,9.68
2023-04-01T05:14:15.585Z,9.60
2023-04-01T05:16:46.026Z,9.62
2023-04-01T05:19:14.320Z,9.62
2023-04-01T05:21:42.325Z,9.55
2023-04-01T05:24:11.234Z,9.52
2023-04-01T05:26:39.696Z,9.55
2023-04-01T05:29:09.343Z,9.52
2023-04-01T05:31:37.436Z,9.62
2023-04-01T05:34:06.957Z,9.58
2023-04-01T05:36:36.602Z,9.64
2023-04-01T05:39:05.278Z,9.66
2023-04-01T05:41:33.336Z,9.73
2023-04-01T05:44:01.597Z,9.68
2023-04-01T05:46:51.290Z,9.74
2023-04-01T05:49:22.920Z,9.70
2023-04-01T05:51:52.209Z,9.84
2023-04-01T05:54:21.044Z,9.85
2023-04-01T05:56:49.258Z,9.82
2023-04-01T05:59:18.418Z,9.92
2023-04-01T06:01:46.439Z,10.01
2023-04-01T06:04:18.376Z,10.23
2023-04-01T06:06:47.647Z,10.15
2023-04-01T06:09:18.014Z,10.16
2023-04-01T06:12:00.417Z,10.15
2023-04-01T06:14:35.865Z,10.16
2023-04-01T06:17:22.536Z,10.21
2023-04-01T06:19:57.547Z,10.06
2023-04-01T06:23:02.783Z,10.19
2023-04-01T06:26:01.110Z,10.26
2023-04-01T06:29:14.599Z,10.25
2023-04-01T06:31:58.487Z,10.30
2023-04-01T06:34:40.578Z,10.40
2023-04-01T06:37:20.423Z,10.23
2023-04-01T06:40:01.948Z,10.37
2023-04-01T06:42:39.300Z,10.40
2023-04-01T06:45:28.472Z,10.44
2023-04-01T06:48:30.974Z,10.31
2023-04-01T06:51:26.576Z,10.37
2023-04-01T06:54:18.115Z,10.27
2023-04-01T06:57:12.924Z,10.22
2023-04-01T06:59:41.334Z,10.29
2023-04-01T07:02:21.044Z,10.30
2023-04-01T07:04:51.035Z,10.48
2023-04-01T07:07:26.263Z,10.38
2023-04-01T07:10:02.166Z,10.29
2023-04-01T07:12:40.099Z,10.35
2023-04-01T07:15:19.290Z,10.28
2023-04-01T07:17:49.360Z,10.22
2023-04-01T07:20:22.500Z,10.07
2023-04-01T07:22:51.912Z,10.09
2023-04-01T07:25:48.681Z,10.06
2023-04-01T07:28:35.732Z,10.17
2023-04-01T07:31:21.026Z,10.13
2023-04-01T07:33:56.394Z,10.18
2023-04-01T07:36:30.555Z,10.17
2023-04-01T07:39:05.342Z,10.20
2023-04-01T07:42:11.420Z,9.98
2023-04-01T07:44:45.274Z,9.95
2023-04-01T07:47:25.120Z,9.99
2023-04-01T07:50:03.651Z,9.92
2023-04-01T07:52:38.126Z,10.00
2023-04-01T07:55:18.808Z,10.02
2023-04-01T07:57:52.511Z,10.02
2023-04-01T08:00:22.696Z,10.00
2023-04-01T08:03:19.017Z,9.84
2023-04-01T08:05:54.011Z,9.93
2023-04-01T08:08:30.209Z,9.84
2023-04-01T08:11:26.998Z,9.94
2023-04-01T08:14:28.475Z,9.95
2023-04-01T08:17:40.093Z,9.97
2023-04-01T08:20:18.857Z,10.07
2023-04-01T08:22:51.272Z,10.20
2023-04-01T08:25:32.905Z,10.18
2023-04-01T08:28:06.418Z,10.17
2023-04-01T08:30:42.266Z,9.97
2023-04-01T08:33:16.731Z,10.11
2023-04-01T08:35:49.180Z,10.31
2023-04-01T08:38:20.335Z,10.22
2023-04-01T08:41:01.503Z,10.06
2023-04-01T08:44:01.571Z,10.21
2023-04-01T08:47:07.982Z,10.26
2023-04-01T08:49:49.267Z,9.95
2023-04-01T08:52:38.125Z,10.04
2023-04-01T08:55:29.489Z,10.09
2023-04-01T08:58:26.822Z,10.18
2023-04-01T09:01:18.044Z,10.12
2023-04-01T09:04:05.289Z,10.21
2023-04-01T09:06:52.475Z,10.22
2023-04-01T09:10:02.764Z,10.23
2023-04-01T09:12:51.520Z,10.14
2023-04-01T09:15:35.113Z,10.33
2023-04-01T09:18:55.354Z,10.16
2023-04-01T09:21:33.630Z,10.24
2023-04-01T09:24:26.088Z,10.26
2023-04-01T09:27:06.580Z,10.28
2023-04-01T09:29:56.692Z,10.31
2023-04-01T09:32:40.668Z,10.15
2023-04-01T09:35:24.507Z,10.21
2023-04-01T09:38:02.232Z,10.39
2023-04-01T09:40:43.790Z,10.17
2023-04-01T09:43:26.571Z,10.43
2023-04-01T09:46:21.444Z,10.46
2023-04-01T09:49:22.282Z,10.55
2023-04-01T09:51:59.504Z,10.52
2023-04-01T09:54:42.361Z,10.57
2023-04-01T09:57:25.115Z,10.50
2023-04-01T10:00:34.645Z,10.54
2023-04-01T10:03:54.169Z,10.49
2023-04-01T10:07:14.433Z,10.32
2023-04-01T10:10:16.028Z,10.51
2023-04-01T10:13:04.761Z,10.33
2023-04-01T10:16:01.512Z,10.38
2023-04-01T10:18:49.352Z,10.61
2023-04-01T10:21:41.904Z,10.53
2023-04-01T10:24:26.221Z,10.72
2023-04-01T10:27:15.918Z,10.63
2023-04-01T10:30:33.951Z,10.42
2023-04-01T10:33:35.603Z,10.49
2023-04-01T10:36:30.949Z,10.61
2023-04-01T10:39:12.515Z,10.51
2023-04-01T10:42:07.993Z,10.64
2023-04-01T10:44:52.425Z,10.57
2023-04-01T10:47:46.855Z,10.57
2023-04-01T10:50:42.984Z,10.67
2023-04-01T10:53:43.628Z,10.77
2023-04-01T10:56:41.920Z,10.69
2023-04-01T11:00:19.232Z,10.64
2023-04-01T11:03:41.878Z,10.67
2023-04-01T11:07:24.450Z,10.78
2023-04-01T11:10:08.320Z,10.79
2023-04-01T11:13:10.488Z,10.77
2023-04-01T11:15:57.755Z,10.72
2023-04-01T11:18:55.260Z,10.76
2023-04-01T11:21:56.691Z,10.78
2023-04-01T11:24:51.180Z,10.81
2023-04-01T11:27:54.965Z,10.79
2023-04-01T11:30:43.210Z,10.84
2023-04-01T11:33:20.101Z,10.66
2023-04-01T11:36:11.278Z,10.69
2023-04-01T11:38:51.970Z,10.85
2023-04-01T11:42:02.921Z,10.97
2023-04-01T11:44:55.592Z,11.02
2023-04-01T11:47:50.922Z,10.96
2023-04-01T11:50:23.977Z,11.10
2023-04-01T11:53:04.854Z,11.03
2023-04-01T11:55:45.812Z,11.07
2023-04-01T11:58:24.980Z,11.07
2023-04-01T12:01:08.458Z,11.15
2023-04-01T12:03:49.147Z,11.13
2023-04-01T12:06:23.306Z,11.12
2023-04-01T12:08:57.982Z,11.09
2023-04-01T12:11:32.357Z,11.04
2023-04-01T12:14:07.089Z,11.09
2023-04-01T12:16:48.948Z,11.10
2023-04-01T12:19:22.132Z,11.11
2023-04-01T12:21:57.648Z,11.18
2023-04-01T12:24:47.433Z,11.27
2023-04-01T12:27:33.849Z,11.34
2023-04-01T12:30:15.033Z,11.35
2023-04-01T12:32:47.815Z,11.39
2023-04-01T12:35:21.304Z,11.37
2023-04-01T12:37:57.248Z,11.33
2023-04-01T12:40:42.233Z,11.34
2023-04-01T12:43:22.413Z,11.29
2023-04-01T12:45:57.401Z,11.44
2023-04-01T12:48:39.816Z,11.32
2023-04-01T12:51:31.056Z,11.44
2023-04-01T12:54:27.148Z,11.42
2023-04-01T12:57:04.930Z,11.43
2023-04-01T12:59:46.313Z,11.38
2023-04-01T13:02:15.908Z,11.46
2023-04-01T13:05:20.638Z,11.49
2023-04-01T13:07:55.255Z,11.67
2023-04-01T13:10:33.539Z,11.67
2023-04-01T13:13:17.545Z,11.62
2023-04-01T13:15:47.548Z,11.73
2023-04-01T13:18:24.724Z,11.73
2023-04-01T13:21:01.239Z,11.65
2023-04-01T13:23:38.574Z,11.65
2023-04-01T13:26:16.219Z,11.68
2023-04-01T13:28:49.973Z,11.59
2023-04-01T13:31:29.384Z,11.50
2023-04-01T13:34:05.788Z,11.53
2023-04-01T13:36:40.339Z,11.51
2023-04-01T13:39:17.536Z,11.52
2023-04-01T13:41:55.238Z,11.56
2023-04-01T13:44:31.666Z,11.62
2023-04-01T13:47:26.493Z,11.64
2023-04-01T13:50:27.396Z,11.75
2023-04-01T13:53:36.157Z,11.78
2023-04-01T13:56:17.270Z,11.80
2023-04-01T13:59:09.485Z,11.83
2023-04-01T14:01:43.797Z,11.90
2023-04-01T14:04:41.765Z,11.91
2023-04-01T14:07:38.903Z,11.97
2023-04-01T14:10:25.654Z,12.00
2023-04-01T14:13:00.980Z,12.01
2023-04-01T14:15:43.113Z,12.06
2023-04-01T14:18:21.096Z,12.00
2023-04-01T14:20:53.942Z,12.09
2023-04-01T14:23:56.967Z,12.05
2023-04-01T14:26:35.986Z,11.98
2023-04-01T14:29:16.889Z,11.87
2023-04-01T14:31:56.629Z,11.93
2023-04-01T14:34:36.249Z,11.93
2023-04-01T14:37:18.077Z,11.98
2023-04-01T14:40:02.330Z,11.90
2023-04-01T14:42:47.503Z,11.95
2023-04-01T14:45:33.444Z,11.84
2023-04-01T14:48:06.621Z,11.76
2023-04-01T14:50:43.364Z,11.80
2023-04-01T14:53:15.585Z,11.73
2023-04-01T14:55:51.496Z,11.76
2023-04-01T14:58:22.750Z,11.77
2023-04-01T15:00:57.707Z,11.67
2023-04-01T15:03:31.576Z,11.72
2023-04-01T15:06:22.847Z,11.83
2023-04-01T15:08:56.830Z,11.77
2023-04-01T15:11:37.317Z,11.77
2023-04-01T15:14:33.348Z,11.79
2023-04-01T15:17:15.150Z,11.72
2023-04-01T15:19:57.816Z,11.81
2023-04-01T15:22:48.232Z,11.76
2023-04-01T15:25:29.990Z,11.74
2023-04-01T15:28:03.284Z,11.74
2023-04-01T15:30:35.802Z,11.76
2023-04-01T15:33:25.494Z,11.75
2023-04-01T15:36:00.471Z,11.66
2023-04-01T15:38:35.505Z,11.80
2023-04-01T15:41:09.632Z,11.81
2023-04-01T15:43:43.256Z,11.86
2023-04-01T15:46:28.536Z,11.81
2023-04-01T15:49:05.041Z,11.85
2023-04-01T15:51:50.725Z,11.88
2023-04-01T15:54:35.545Z,11.84
2023-04-01T15:57:20.663Z,11.79
2023-04-01T15:59:56.685Z,11.78
2023-04-01T16:02:33.081Z,11.81
2023-04-01T16:05:06.628Z,11.89
2023-04-01T16:07:47.971Z,11.79
2023-04-01T16:10:27.858Z,11.87
2023-04-01T16:13:05.760Z,11.82
2023-04-01T16:15:40.248Z,11.78
2023-04-01T16:18:25.030Z,11.76
2023-04-01T16:20:56.789Z,11.82
2023-04-01T16:23:28.914Z,11.85
2023-04-01T16:26:05.709Z,11.77
2023-04-01T16:28:38.943Z,11.87
2023-04-01T16:31:10.937Z,11.90
2023-04-01T16:33:46.766Z,11.91
2023-04-01T16:36:25.469Z,11.80
2023-04-01T16:38:59.730Z,11.83
2023-04-01T16:41:31.991Z,11.80
2023-04-01T16:44:13.032Z,11.92
2023-04-01T16:46:42.013Z,11.91
2023-04-01T16:49:25.707Z,11.76
2023-04-01T16:51:56.817Z,11.81
2023-04-01T16:54:31.242Z,11.89
2023-04-01T16:57:20.020Z,11.87
2023-04-01T16:59:50.071Z,11.83
2023-04-01T17:02:19.809Z,11.85
2023-04-01T17:04:50.334Z,12.02
2023-04-01T17:07:28.920Z,11.87
2023-04-01T17:10:09.152Z,11.83
2023-04-01T17:12:42.349Z,11.76
2023-04-01T17:15:19.564Z,11.81
2023-04-01T17:17:55.403Z,11.82
2023-04-01T17:20:36.165Z,11.83
2023-04-01T17:23:14.144Z,11.84
2023-04-01T17:25:53.811Z,11.69
2023-04-01T17:28:35.506Z,11.78
2023-04-01T17:31:09.825Z,11.76
2023-04-01T17:34:17.085Z,11.72
2023-04-01T17:36:58.128Z,11.76
2023-04-01T17:39:37.773Z,11.64
2023-04-01T17:42:08.619Z,11.67
2023-04-01T17:44:47.958Z,11.70
2023-04-01T17:47:35.353Z,11.64
2023-04-01T17:50:23.104Z,11.54
2023-04-01T17:52:59.756Z,11.56
2023-04-01T17:55:48.147Z,11.37
2023-04-01T17:58:20.578Z,11.31
2023-04-01T18:01:10.801Z,11.32
2023-04-01T18:03:55.958Z,11.17
2023-04-01T18:06:32.310Z,11.26
2023-04-01T18:09:01.843Z,11.18
2023-04-01T18:11:40.325Z,11.21
2023-04-01T18:14:38.367Z,11.33
2023-04-01T18:17:18.775Z,11.25
2023-04-01T18:19:57.378Z,11.16
2023-04-01T18:22:30.284Z,11.12
2023-04-01T18:25:03.296Z,11.12
2023-04-01T18:27:32.699Z,11.07
2023-04-01T18:30:03.594Z,11.05
2023-04-01T18:32:37.759Z,10.96
2023-04-01T18:35:19.273Z,10.91
2023-04-01T18:37:51.177Z,10.88
2023-04-01T18:40:25.132Z,10.80
2023-04-01T18:43:02.594Z,10.85
2023-04-01T18:45:33.964Z,10.85
2023-04-01T18:48:13.198Z,10.80
2023-04-01T18:50:45.825Z,10.67
2023-04-01T18:53:20.521Z,10.65
2023-04-01T18:55:49.988Z,10.81
2023-04-01T18:58:26.312Z,10.83
2023-04-01T19:01:06.615Z,10.81
2023-04-01T19:03:41.142Z,10.81
2023-04-01T19:06:17.975Z,10.83
2023-04-01T19:08:46.426Z,10.83
2023-04-01T19:11:21.604Z,10.73
2023-04-01T19:13:56.234Z,10.66
2023-04-01T19:16:33.200Z,10.58
2023-04-01T19:19:15.776Z,10.53
2023-04-01T19:21:47.673Z,10.46
2023-04-01T19:24:35.629Z,10.38
2023-04-01T19:27:08.729Z,10.45
2023-04-01T19:29:46.300Z,10.30
2023-04-01T19:32:20.947Z,10.40
2023-04-01T19:34:56.663Z,10.21
2023-04-01T19:37:31.653Z,10.37
2023-04-01T19:40:12.124Z,10.10
2023-04-01T19:42:44.713Z,10.14
2023-04-01T19:45:27.975Z,10.11
2023-04-01T19:48:02.561Z,10.09
2023-04-01T19:50:37.941Z,10.11
2023-04-01T19:53:15.954Z,9.96
2023-04-01T19:55:48.091Z,9.97
2023-04-01T19:58:22.792Z,9.95
2023-04-01T20:00:55.066Z,10.04
2023-04-01T20:03:31.501Z,9.89
2023-04-01T20:06:09.058Z,9.91
2023-04-01T20:08:42.874Z,9.89
2023-04-01T20:11:24.154Z,9.91
2023-04-01T20:14:01.224Z,9.82
2023-04-01T20:16:48.647Z,9.88
2023-04-01T20:19:26.591Z,9.87
2023-04-01T20:21:58.937Z,9.83
2023-04-01T20:24:30.797Z,9.84
2023-04-01T20:27:05.373Z,9.90
2023-04-01T20:29:44.277Z,9.85
2023-04-01T20:32:23.639Z,9.89
2023-04-01T20:35:01.906Z,9.90
2023-04-01T20:37:39.988Z,9.87
2023-04-01T20:40:34.751Z,9.94
2023-04-01T20:43:26.618Z,10.04
2023-04-01T20:45:59.137Z,9.99
2023-04-01T20:48:40.816Z,10.05
2023-04-01T20:51:11.061Z,10.01
2023-04-01T20:53:45.112Z,9.90
2023-04-01T20:56:23.650Z,9.89
2023-04-01T20:58:59.624Z,9.87
2023-04-01T21:01:37.241Z,9.95
2023-04-01T21:04:19.479Z,9.95
2023-04-01T21:07:00.989Z,9.97
2023-04-01T21:09:43.862Z,10.02
2023-04-01T21:12:20.265Z,10.11
2023-04-01T21:15:24.054Z,10.00
2023-04-01T21:18:00.523Z,9.90
2023-04-01T21:20:44.916Z,9.92
2023-04-01T21:23:33.698Z,10.00
2023-04-01T21:26:12.771Z,9.98
2023-04-01T21:28:49.045Z,10.06
2023-04-01T21:31:36.227Z,10.25
2023-04-01T21:34:34.963Z,10.11
2023-04-01T21:37:22.159Z,10.09
2023-04-01T21:40:02.704Z,10.07
2023-04-01T21:42:41.900Z,9.97
2023-04-01T21:45:21.456Z,10.01
2023-04-01T21:48:09.224Z,9.89
2023-04-01T21:50:50.187Z,9.79
2023-04-01T21:53:48.783Z,9.82
2023-04-01T21:56:44.572Z,9.84
2023-04-01T21:59:43.994Z,9.84
2023-04-01T22:02:38.522Z,9.81
2023-04-01T22:05:09.520Z,9.85
2023-04-01T22:07:40.369Z,9.83
2023-04-01T22:10:16.429Z,9.83
2023-04-01T22:12:49.562Z,9.88
2023-04-01T22:15:26.271Z,9.84
2023-04-01T22:17:56.579Z,9.89
2023-04-01T22:20:32.163Z,9.89
2023-04-01T22:23:12.387Z,9.91
2023-04-01T22:25:44.534Z,9.91
2023-04-01T22:28:15.414Z,9.83
2023-04-01T22:30:48.558Z,9.91
2023-04-01T22:33:19.236Z,9.89
2023-04-01T22:35:52.223Z,9.89
2023-04-01T22:38:33.183Z,9.90
2023-04-01T22:41:07.187Z,9.92
2023-04-01T22:43:39.312Z,9.92
2023-04-01T22:46:28.847Z,10.05
2023-04-01T22:49:02.643Z,10.14
2023-04-01T22:51:42.330Z,10.22
2023-04-01T22:54:17.058Z,10.15
2023-04-01T22:56:48.483Z,10.13
2023-04-01T22:59:19.863Z,10.07
2023-04-01T23:01:54.029Z,10.02
2023-04-01T23:04:26.075Z,9.98
2023-04-01T23:06:57.313Z,9.94
2023-04-01T23:09:26.254Z,9.89
2023-04-01T23:11:57.158Z,9.86
2023-04-01T23:14:47.368Z,9.80
2023-04-01T23:17:42.651Z,9.78
2023-04-01T23:20:31.120Z,9.76
2023-04-01T23:23:09.179Z,9.73
2023-04-01T23:25:45.621Z,9.74
2023-04-01T23:28:27.710Z,9.76
2023-04-01T23:30:55.774Z,9.74
2023-04-01T23:33:29.307Z,9.79
2023-04-01T23:36:05.914Z,9.80
2023-04-01T23:38:36.510Z,9.85
2023-04-01T23:41:05.327Z,9.85
2023-04-01T23:43:37.874Z,9.83
2023-04-01T23:46:08.188Z,9.97
2023-04-01T23:48:40.373Z,9.99
2023-04-01T23:51:15.399Z,10.03
2023-04-01T23:53:46.353Z,10.05
2023-04-01T23:56:14.920Z,10.05
2023-04-01T23:58:47.187Z,10.07
